sensor_id;sensor_type;location;lat;lon;timestamp;temperature;humidity
13035;DHT22;6584;48.022;11.810;2022-10-15T00:01:25;13.20;99.90
13035;DHT22;6584;48.022;11.810;2022-10-15T00:03:51;13.20;99.90
13035;DHT22;6584;48.022;11.810;2022-10-15T00:06:19;13.20;99.90
13035;DHT22;6584;48.022;11.810;2022-10-15T00:08:46;13.10;99.90
13035;DHT22;6584;48.022;11.810;2022-10-15T00:11:14;13.10;99.90
13035;DHT22;6584;48.022;11.810;2022-10-15T00:13:40;13.10;99.90
13035;DHT22;6584;48.022;11.810;2022-10-15T00:16:10;13.10;99.90
13035;DHT22;6584;48.022;11.810;2022-10-15T00:18:35;13.00;99.90
13035;DHT22;6584;48.022;11.810;2022-10-15T00:21:07;13.10;99.90
13035;DHT22;6584;48.022;11.810;2022-10-15T00:23:33;13.10;99.90
13035;DHT22;6584;48.022;11.810;2022-10-15T00:26:07;13.10;99.90
13035;DHT22;6584;48.022;11.810;2022-10-15T00:28:33;13.10;99.90
13035;DHT22;6584;48.022;11.810;2022-10-15T00:31:06;13.10;99.90
13035;DHT22;6584;48.022;11.810;2022-10-15T00:33:32;13.10;99.90
13035;DHT22;6584;48.022;11.810;2022-10-15T00:36:06;13.10;99.90
13035;DHT22;6584;48.022;11.810;2022-10-15T00:38:33;13.10;99.90
13035;DHT22;6584;48.022;11.810;2022-10-15T00:40:59;13.00;99.90
13035;DHT22;6584;48.022;11.810;2022-10-15T00:43:36;13.00;99.90
13035;DHT22;6584;48.022;11.810;2022-10-15T00:46:03;13.00;99.90
13035;DHT22;6584;48.022;11.810;2022-10-15T00:48:30;13.00;99.90
13035;DHT22;6584;48.022;11.810;2022-10-15T00:50:56;13.00;99.90
13035;DHT22;6584;48.022;11.810;2022-10-15T00:53:22;13.00;99.90
13035;DHT22;6584;48.022;11.810;2022-10-15T00:55:48;13.00;99.90
13035;DHT22;6584;48.022;11.810;2022-10-15T00:58:17;13.00;99.90
13035;DHT22;6584;48.022;11.810;2022-10-15T01:00:46;12.90;99.90
13035;DHT22;6584;48.022;11.810;2022-10-15T01:03:12;13.00;99.90
13035;DHT22;6584;48.022;11.810;2022-10-15T01:05:38;13.00;99.90
13035;DHT22;6584;48.022;11.810;2022-10-15T01:08:04;13.00;99.90
13035;DHT22;6584;48.022;11.810;2022-10-15T01:10:36;13.00;99.90
13035;DHT22;6584;48.022;11.810;2022-10-15T01:13:23;13.00;99.90
13035;DHT22;6584;48.022;11.810;2022-10-15T01:18:41;13.00;99.90
13035;DHT22;6584;48.022;11.810;2022-10-15T01:21:16;12.90;99.90
13035;DHT22;6584;48.022;11.810;2022-10-15T01:26:57;12.90;99.90
13035;DHT22;6584;48.022;11.810;2022-10-15T01:37:43;12.90;99.90
13035;DHT22;6584;48.022;11.810;2022-10-15T01:40:18;13.00;99.90
13035;DHT22;6584;48.022;11.810;2022-10-15T01:42:53;13.00;99.90
13035;DHT22;6584;48.022;11.810;2022-10-15T01:45:33;13.00;99.90
13035;DHT22;6584;48.022;11.810;2022-10-15T01:48:03;13.00;99.90
13035;DHT22;6584;48.022;11.810;2022-10-15T01:50:31;13.00;99.90
13035;DHT22;6584;48.022;11.810;2022-10-15T01:52:58;12.90;99.90
13035;DHT22;6584;48.022;11.810;2022-10-15T01:55:25;12.90;99.90
13035;DHT22;6584;48.022;11.810;2022-10-15T01:57:55;13.00;99.90
13035;DHT22;6584;48.022;11.810;2022-10-15T02:00:21;13.00;99.90
13035;DHT22;6584;48.022;11.810;2022-10-15T02:02:47;13.00;99.90
13035;DHT22;6584;48.022;11.810;2022-10-15T02:05:20;12.90;99.90
13035;DHT22;6584;48.022;11.810;2022-10-15T02:08:18;12.90;99.90
13035;DHT22;6584;48.022;11.810;2022-10-15T02:10:58;12.90;99.90
13035;DHT22;6584;48.022;11.810;2022-10-15T02:13:36;12.90;99.90
13035;DHT22;6584;48.022;11.810;2022-10-15T02:16:30;13.00;99.90
13035;DHT22;6584;48.022;11.810;2022-10-15T02:21:47;12.90;99.90
13035;DHT22;6584;48.022;11.810;2022-10-15T02:24:25;12.90;99.90
13035;DHT22;6584;48.022;11.810;2022-10-15T02:26:54;12.90;99.90
13035;DHT22;6584;48.022;11.810;2022-10-15T02:29:23;12.90;99.90
13035;DHT22;6584;48.022;11.810;2022-10-15T02:31:52;13.00;99.90
13035;DHT22;6584;48.022;11.810;2022-10-15T02:34:21;13.00;99.90
13035;DHT22;6584;48.022;11.810;2022-10-15T02:36:49;13.00;99.90
13035;DHT22;6584;48.022;11.810;2022-10-15T02:39:19;13.00;99.90
13035;DHT22;6584;48.022;11.810;2022-10-15T02:41:46;12.90;99.90
13035;DHT22;6584;48.022;11.810;2022-10-15T02:44:12;13.00;99.90
13035;DHT22;6584;48.022;11.810;2022-10-15T02:46:38;13.00;99.90
13035;DHT22;6584;48.022;11.810;2022-10-15T02:49:03;12.90;99.90
13035;DHT22;6584;48.022;11.810;2022-10-15T02:51:33;12.90;99.90
13035;DHT22;6584;48.022;11.810;2022-10-15T02:54:00;12.90;99.90
13035;DHT22;6584;48.022;11.810;2022-10-15T02:56:27;13.00;99.90
13035;DHT22;6584;48.022;11.810;2022-10-15T02:58:52;13.00;99.90
13035;DHT22;6584;48.022;11.810;2022-10-15T03:01:18;13.00;99.90
13035;DHT22;6584;48.022;11.810;2022-10-15T03:03:43;13.00;99.90
13035;DHT22;6584;48.022;11.810;2022-10-15T03:06:09;13.00;99.90
13035;DHT22;6584;48.022;11.810;2022-10-15T03:08:35;13.00;99.90
13035;DHT22;6584;48.022;11.810;2022-10-15T03:11:00;13.00;99.90
13035;DHT22;6584;48.022;11.810;2022-10-15T03:13:27;13.00;99.90
13035;DHT22;6584;48.022;11.810;2022-10-15T03:15:53;13.00;99.90
13035;DHT22;6584;48.022;11.810;2022-10-15T03:18:18;13.00;99.90
13035;DHT22;6584;48.022;11.810;2022-10-15T03:20:44;13.00;99.90
13035;DHT22;6584;48.022;11.810;2022-10-15T03:23:17;13.00;99.90
13035;DHT22;6584;48.022;11.810;2022-10-15T03:25:42;13.10;99.90
13035;DHT22;6584;48.022;11.810;2022-10-15T03:28:08;13.00;99.90
13035;DHT22;6584;48.022;11.810;2022-10-15T03:30:33;13.00;99.90
13035;DHT22;6584;48.022;11.810;2022-10-15T03:32:59;13.10;99.90
13035;DHT22;6584;48.022;11.810;2022-10-15T03:35:24;13.00;99.90
13035;DHT22;6584;48.022;11.810;2022-10-15T03:37:50;13.00;99.90
13035;DHT22;6584;48.022;11.810;2022-10-15T03:40:15;13.10;99.90
13035;DHT22;6584;48.022;11.810;2022-10-15T03:42:41;13.10;99.90
13035;DHT22;6584;48.022;11.810;2022-10-15T03:45:07;13.00;99.90
13035;DHT22;6584;48.022;11.810;2022-10-15T03:47:33;13.00;99.90
13035;DHT22;6584;48.022;11.810;2022-10-15T03:49:58;13.00;99.90
13035;DHT22;6584;48.022;11.810;2022-10-15T03:52:24;13.00;99.90
13035;DHT22;6584;48.022;11.810;2022-10-15T03:54:49;13.00;99.90
13035;DHT22;6584;48.022;11.810;2022-10-15T03:57:15;13.00;99.90
13035;DHT22;6584;48.022;11.810;2022-10-15T03:59:40;13.00;99.90
13035;DHT22;6584;48.022;11.810;2022-10-15T04:02:06;13.00;99.90
13035;DHT22;6584;48.022;11.810;2022-10-15T04:04:32;13.00;99.90
13035;DHT22;6584;48.022;11.810;2022-10-15T04:06:57;13.00;99.90
13035;DHT22;6584;48.022;11.810;2022-10-15T04:09:23;13.00;99.90
13035;DHT22;6584;48.022;11.810;2022-10-15T04:11:48;13.00;99.90
13035;DHT22;6584;48.022;11.810;2022-10-15T04:14:14;13.00;99.90
13035;DHT22;6584;48.022;11.810;2022-10-15T04:16:39;13.00;99.90
13035;DHT22;6584;48.022;11.810;2022-10-15T04:19:05;13.00;99.90
13035;DHT22;6584;48.022;11.810;2022-10-15T04:21:30;13.00;99.90
13035;DHT22;6584;48.022;11.810;2022-10-15T04:23:56;13.10;99.90
13035;DHT22;6584;48.022;11.810;2022-10-15T04:26:21;13.10;99.90
13035;DHT22;6584;48.022;11.810;2022-10-15T04:28:48;13.20;99.90
13035;DHT22;6584;48.022;11.810;2022-10-15T04:31:13;13.30;99.90
13035;DHT22;6584;48.022;11.810;2022-10-15T04:33:39;13.30;99.90
13035;DHT22;6584;48.022;11.810;2022-10-15T04:36:07;13.40;99.90
13035;DHT22;6584;48.022;11.810;2022-10-15T04:38:36;13.40;99.90
13035;DHT22;6584;48.022;11.810;2022-10-15T04:41:04;13.30;99.90
13035;DHT22;6584;48.022;11.810;2022-10-15T04:43:30;13.30;99.90
13035;DHT22;6584;48.022;11.810;2022-10-15T04:45:57;13.40;99.90
13035;DHT22;6584;48.022;11.810;2022-10-15T04:48:22;13.30;99.90
13035;DHT22;6584;48.022;11.810;2022-10-15T04:50:48;13.30;99.90
13035;DHT22;6584;48.022;11.810;2022-10-15T04:53:13;13.30;99.90
13035;DHT22;6584;48.022;11.810;2022-10-15T04:55:39;13.40;99.90
13035;DHT22;6584;48.022;11.810;2022-10-15T04:58:05;13.40;99.90
13035;DHT22;6584;48.022;11.810;2022-10-15T05:00:30;13.50;99.90
13035;DHT22;6584;48.022;11.810;2022-10-15T05:02:56;13.50;99.90
13035;DHT22;6584;48.022;11.810;2022-10-15T05:05:21;13.50;99.90
13035;DHT22;6584;48.022;11.810;2022-10-15T05:07:47;13.50;99.90
13035;DHT22;6584;48.022;11.810;2022-10-15T05:10:12;13.50;99.90
13035;DHT22;6584;48.022;11.810;2022-10-15T05:12:38;13.50;99.90
13035;DHT22;6584;48.022;11.810;2022-10-15T05:15:04;13.50;99.90
13035;DHT22;6584;48.022;11.810;2022-10-15T05:17:29;13.50;99.90
13035;DHT22;6584;48.022;11.810;2022-10-15T05:19:55;13.50;99.90
13035;DHT22;6584;48.022;11.810;2022-10-15T05:22:21;13.50;99.90
13035;DHT22;6584;48.022;11.810;2022-10-15T05:24:46;13.50;99.90
13035;DHT22;6584;48.022;11.810;2022-10-15T05:27:12;13.50;99.90
13035;DHT22;6584;48.022;11.810;2022-10-15T05:29:37;13.60;99.90
13035;DHT22;6584;48.022;11.810;2022-10-15T05:32:04;13.60;99.90
13035;DHT22;6584;48.022;11.810;2022-10-15T05:34:30;13.50;99.90
13035;DHT22;6584;48.022;11.810;2022-10-15T05:36:55;13.60;99.90
13035;DHT22;6584;48.022;11.810;2022-10-15T05:39:21;13.60;99.90
13035;DHT22;6584;48.022;11.810;2022-10-15T05:41:46;13.50;99.90
13035;DHT22;6584;48.022;11.810;2022-10-15T05:44:12;13.60;99.90
13035;DHT22;6584;48.022;11.810;2022-10-15T05:46:38;13.60;99.90
13035;DHT22;6584;48.022;11.810;2022-10-15T05:49:03;13.50;99.90
13035;DHT22;6584;48.022;11.810;2022-10-15T05:51:29;13.60;99.90
13035;DHT22;6584;48.022;11.810;2022-10-15T05:53:55;13.70;99.90
13035;DHT22;6584;48.022;11.810;2022-10-15T05:56:22;13.70;99.90
13035;DHT22;6584;48.022;11.810;2022-10-15T05:58:48;13.70;99.90
13035;DHT22;6584;48.022;11.810;2022-10-15T06:01:14;13.70;99.90
13035;DHT22;6584;48.022;11.810;2022-10-15T06:03:40;13.70;99.90
13035;DHT22;6584;48.022;11.810;2022-10-15T06:06:17;13.80;99.90
13035;DHT22;6584;48.022;11.810;2022-10-15T06:08:43;13.80;99.90
13035;DHT22;6584;48.022;11.810;2022-10-15T06:11:08;13.80;99.90
13035;DHT22;6584;48.022;11.810;2022-10-15T06:13:34;13.70;99.90
13035;DHT22;6584;48.022;11.810;2022-10-15T06:16:02;13.80;99.90
13035;DHT22;6584;48.022;11.810;2022-10-15T06:18:28;13.80;99.90
13035;DHT22;6584;48.022;11.810;2022-10-15T06:20:53;13.80;99.90
13035;DHT22;6584;48.022;11.810;2022-10-15T06:23:19;13.80;99.90
13035;DHT22;6584;48.022;11.810;2022-10-15T06:25:46;13.90;99.90
13035;DHT22;6584;48.022;11.810;2022-10-15T06:28:11;13.90;99.90
13035;DHT22;6584;48.022;11.810;2022-10-15T06:30:37;13.90;99.90
13035;DHT22;6584;48.022;11.810;2022-10-15T06:33:02;14.00;99.90
13035;DHT22;6584;48.022;11.810;2022-10-15T06:35:28;14.00;99.90
13035;DHT22;6584;48.022;11.810;2022-10-15T06:38:00;14.00;99.90
13035;DHT22;6584;48.022;11.810;2022-10-15T06:40:26;14.00;99.90
13035;DHT22;6584;48.022;11.810;2022-10-15T06:42:52;14.00;99.90
13035;DHT22;6584;48.022;11.810;2022-10-15T06:45:17;14.00;99.90
13035;DHT22;6584;48.022;11.810;2022-10-15T06:47:43;14.10;99.90
13035;DHT22;6584;48.022;11.810;2022-10-15T06:50:09;14.10;99.90
13035;DHT22;6584;48.022;11.810;2022-10-15T06:52:34;14.10;99.90
13035;DHT22;6584;48.022;11.810;2022-10-15T06:55:00;14.10;99.90
13035;DHT22;6584;48.022;11.810;2022-10-15T06:57:27;14.10;99.90
13035;DHT22;6584;48.022;11.810;2022-10-15T06:59:52;14.10;99.90
13035;DHT22;6584;48.022;11.810;2022-10-15T07:02:18;14.00;99.90
13035;DHT22;6584;48.022;11.810;2022-10-15T07:04:45;14.10;99.90
13035;DHT22;6584;48.022;11.810;2022-10-15T07:07:11;14.10;99.90
13035;DHT22;6584;48.022;11.810;2022-10-15T07:09:36;14.10;99.90
13035;DHT22;6584;48.022;11.810;2022-10-15T07:12:02;14.10;99.90
13035;DHT22;6584;48.022;11.810;2022-10-15T07:14:28;14.10;99.90
13035;DHT22;6584;48.022;11.810;2022-10-15T07:16:53;14.20;99.90
13035;DHT22;6584;48.022;11.810;2022-10-15T07:19:19;14.20;99.90
13035;DHT22;6584;48.022;11.810;2022-10-15T07:21:45;14.30;99.90
13035;DHT22;6584;48.022;11.810;2022-10-15T07:24:10;14.30;99.90
13035;DHT22;6584;48.022;11.810;2022-10-15T07:26:36;14.30;99.90
13035;DHT22;6584;48.022;11.810;2022-10-15T07:29:02;14.30;99.90
13035;DHT22;6584;48.022;11.810;2022-10-15T07:31:28;14.40;99.90
13035;DHT22;6584;48.022;11.810;2022-10-15T07:33:54;14.40;99.90
13035;DHT22;6584;48.022;11.810;2022-10-15T07:36:19;14.40;99.90
13035;DHT22;6584;48.022;11.810;2022-10-15T07:38:45;14.50;99.90
13035;DHT22;6584;48.022;11.810;2022-10-15T07:41:11;14.50;99.90
13035;DHT22;6584;48.022;11.810;2022-10-15T07:43:37;14.50;99.90
13035;DHT22;6584;48.022;11.810;2022-10-15T07:46:03;14.40;99.90
13035;DHT22;6584;48.022;11.810;2022-10-15T07:48:29;14.50;99.90
13035;DHT22;6584;48.022;11.810;2022-10-15T07:50:56;14.40;99.90
13035;DHT22;6584;48.022;11.810;2022-10-15T07:53:22;14.40;99.90
13035;DHT22;6584;48.022;11.810;2022-10-15T07:55:48;14.40;99.90
13035;DHT22;6584;48.022;11.810;2022-10-15T07:58:13;14.50;99.90
13035;DHT22;6584;48.022;11.810;2022-10-15T08:00:39;14.50;99.90
13035;DHT22;6584;48.022;11.810;2022-10-15T08:03:05;14.50;99.90
13035;DHT22;6584;48.022;11.810;2022-10-15T08:05:30;14.50;99.90
13035;DHT22;6584;48.022;11.810;2022-10-15T08:07:56;14.50;99.90
13035;DHT22;6584;48.022;11.810;2022-10-15T08:10:21;14.50;99.90
13035;DHT22;6584;48.022;11.810;2022-10-15T08:12:47;14.50;99.90
13035;DHT22;6584;48.022;11.810;2022-10-15T08:15:13;14.60;99.90
13035;DHT22;6584;48.022;11.810;2022-10-15T08:17:38;14.60;99.90
13035;DHT22;6584;48.022;11.810;2022-10-15T08:20:04;14.60;99.90
13035;DHT22;6584;48.022;11.810;2022-10-15T08:22:30;14.70;99.90
13035;DHT22;6584;48.022;11.810;2022-10-15T08:24:55;14.70;99.90
13035;DHT22;6584;48.022;11.810;2022-10-15T08:27:21;14.70;99.90
13035;DHT22;6584;48.022;11.810;2022-10-15T08:29:46;14.70;99.90
13035;DHT22;6584;48.022;11.810;2022-10-15T08:32:12;14.70;99.90
13035;DHT22;6584;48.022;11.810;2022-10-15T08:34:38;14.70;99.90
13035;DHT22;6584;48.022;11.810;2022-10-15T08:37:03;14.70;99.90
13035;DHT22;6584;48.022;11.810;2022-10-15T08:39:29;14.60;99.90
13035;DHT22;6584;48.022;11.810;2022-10-15T08:42:01;14.60;99.90
13035;DHT22;6584;48.022;11.810;2022-10-15T08:44:38;14.60;99.90
13035;DHT22;6584;48.022;11.810;2022-10-15T08:47:08;14.70;99.90
13035;DHT22;6584;48.022;11.810;2022-10-15T08:49:44;14.70;99.90
13035;DHT22;6584;48.022;11.810;2022-10-15T08:54:52;14.70;99.90
13035;DHT22;6584;48.022;11.810;2022-10-15T09:00:34;14.80;99.90
13035;DHT22;6584;48.022;11.810;2022-10-15T09:06:14;14.90;99.90
13035;DHT22;6584;48.022;11.810;2022-10-15T09:14:21;14.80;99.90
13035;DHT22;6584;48.022;11.810;2022-10-15T09:16:52;14.80;99.90
13035;DHT22;6584;48.022;11.810;2022-10-15T09:19:22;14.90;99.90
13035;DHT22;6584;48.022;11.810;2022-10-15T09:21:50;15.00;99.90
13035;DHT22;6584;48.022;11.810;2022-10-15T09:24:24;15.00;99.90
13035;DHT22;6584;48.022;11.810;2022-10-15T09:34:58;15.20;99.90
13035;DHT22;6584;48.022;11.810;2022-10-15T09:40:12;15.40;99.90
13035;DHT22;6584;48.022;11.810;2022-10-15T09:42:41;15.50;99.90
13035;DHT22;6584;48.022;11.810;2022-10-15T09:45:14;15.50;99.90
13035;DHT22;6584;48.022;11.810;2022-10-15T09:47:42;15.60;99.90
13035;DHT22;6584;48.022;11.810;2022-10-15T09:50:11;15.70;99.90
13035;DHT22;6584;48.022;11.810;2022-10-15T09:53:04;15.70;99.90
13035;DHT22;6584;48.022;11.810;2022-10-15T09:56:02;15.80;99.90
13035;DHT22;6584;48.022;11.810;2022-10-15T09:58:52;15.90;99.90
13035;DHT22;6584;48.022;11.810;2022-10-15T10:01:23;15.90;99.90
13035;DHT22;6584;48.022;11.810;2022-10-15T10:04:07;16.00;99.90
13035;DHT22;6584;48.022;11.810;2022-10-15T10:06:45;16.10;99.90
13035;DHT22;6584;48.022;11.810;2022-10-15T10:09:16;16.00;99.90
13035;DHT22;6584;48.022;11.810;2022-10-15T10:11:55;16.10;99.90
13035;DHT22;6584;48.022;11.810;2022-10-15T10:14:41;16.20;99.90
13035;DHT22;6584;48.022;11.810;2022-10-15T10:17:19;16.30;99.90
13035;DHT22;6584;48.022;11.810;2022-10-15T10:20:18;16.20;99.90
13035;DHT22;6584;48.022;11.810;2022-10-15T10:22:55;16.30;99.90
13035;DHT22;6584;48.022;11.810;2022-10-15T10:25:39;16.40;99.90
13035;DHT22;6584;48.022;11.810;2022-10-15T10:33:12;16.70;99.90
13035;DHT22;6584;48.022;11.810;2022-10-15T10:35:47;16.80;99.90
13035;DHT22;6584;48.022;11.810;2022-10-15T10:38:24;16.80;99.90
13035;DHT22;6584;48.022;11.810;2022-10-15T10:40:55;16.80;99.90
13035;DHT22;6584;48.022;11.810;2022-10-15T10:43:27;16.80;99.90
13035;DHT22;6584;48.022;11.810;2022-10-15T10:45:59;16.80;99.90
13035;DHT22;6584;48.022;11.810;2022-10-15T10:51:13;16.90;99.90
13035;DHT22;6584;48.022;11.810;2022-10-15T10:54:02;16.90;99.90
13035;DHT22;6584;48.022;11.810;2022-10-15T10:56:36;16.90;99.90
13035;DHT22;6584;48.022;11.810;2022-10-15T10:59:25;17.00;99.90
13035;DHT22;6584;48.022;11.810;2022-10-15T11:01:53;17.10;99.90
13035;DHT22;6584;48.022;11.810;2022-10-15T11:20:56;17.40;99.90
13035;DHT22;6584;48.022;11.810;2022-10-15T11:26:50;17.50;99.90
13035;DHT22;6584;48.022;11.810;2022-10-15T11:31:49;17.50;99.90
13035;DHT22;6584;48.022;11.810;2022-10-15T11:34:50;17.40;99.90
13035;DHT22;6584;48.022;11.810;2022-10-15T11:46:09;17.60;99.90
13035;DHT22;6584;48.022;11.810;2022-10-15T11:51:23;17.60;99.90
13035;DHT22;6584;48.022;11.810;2022-10-15T11:54:12;17.70;99.90
13035;DHT22;6584;48.022;11.810;2022-10-15T11:56:46;17.70;99.90
13035;DHT22;6584;48.022;11.810;2022-10-15T12:01:59;17.70;99.90
13035;DHT22;6584;48.022;11.810;2022-10-15T12:04:41;17.70;99.90
13035;DHT22;6584;48.022;11.810;2022-10-15T12:07:14;17.70;99.90
13035;DHT22;6584;48.022;11.810;2022-10-15T12:09:45;17.70;99.90
13035;DHT22;6584;48.022;11.810;2022-10-15T12:18:59;17.80;99.90
13035;DHT22;6584;48.022;11.810;2022-10-15T12:20:57;17.80;99.90
13035;DHT22;6584;48.022;11.810;2022-10-15T12:23:39;17.70;99.90
13035;DHT22;6584;48.022;11.810;2022-10-15T12:28:50;17.80;99.90
13035;DHT22;6584;48.022;11.810;2022-10-15T12:31:17;17.70;99.90
13035;DHT22;6584;48.022;11.810;2022-10-15T12:33:55;17.80;99.90
13035;DHT22;6584;48.022;11.810;2022-10-15T12:36:26;17.80;99.90
13035;DHT22;6584;48.022;11.810;2022-10-15T12:41:19;17.70;99.90
13035;DHT22;6584;48.022;11.810;2022-10-15T12:43:52;17.70;99.90
13035;DHT22;6584;48.022;11.810;2022-10-15T12:46:35;17.70;99.90
13035;DHT22;6584;48.022;11.810;2022-10-15T12:51:55;17.80;99.90
13035;DHT22;6584;48.022;11.810;2022-10-15T12:54:41;18.00;99.90
13035;DHT22;6584;48.022;11.810;2022-10-15T12:59:57;18.30;99.90
13035;DHT22;6584;48.022;11.810;2022-10-15T13:02:44;18.30;99.90
13035;DHT22;6584;48.022;11.810;2022-10-15T13:05:26;18.40;99.90
13035;DHT22;6584;48.022;11.810;2022-10-15T13:07:53;18.30;99.90
13035;DHT22;6584;48.022;11.810;2022-10-15T13:10:29;18.40;99.90
13035;DHT22;6584;48.022;11.810;2022-10-15T13:13:00;18.40;99.90
13035;DHT22;6584;48.022;11.810;2022-10-15T13:15:28;18.40;99.90
13035;DHT22;6584;48.022;11.810;2022-10-15T13:17:57;18.40;99.90
13035;DHT22;6584;48.022;11.810;2022-10-15T13:23:48;18.20;99.90
13035;DHT22;6584;48.022;11.810;2022-10-15T13:28:42;18.00;99.90
13035;DHT22;6584;48.022;11.810;2022-10-15T13:31:27;17.90;99.90
13035;DHT22;6584;48.022;11.810;2022-10-15T13:33:56;17.90;99.90
13035;DHT22;6584;48.022;11.810;2022-10-15T13:36:28;18.00;99.90
13035;DHT22;6584;48.022;11.810;2022-10-15T13:39:07;18.20;99.90
13035;DHT22;6584;48.022;11.810;2022-10-15T13:41:35;18.40;99.90
13035;DHT22;6584;48.022;11.810;2022-10-15T13:44:02;18.40;99.90
13035;DHT22;6584;48.022;11.810;2022-10-15T13:46:31;18.50;99.90
13035;DHT22;6584;48.022;11.810;2022-10-15T13:49:08;18.40;99.90
13035;DHT22;6584;48.022;11.810;2022-10-15T13:51:40;18.50;99.90
13035;DHT22;6584;48.022;11.810;2022-10-15T13:54:09;18.50;99.90
13035;DHT22;6584;48.022;11.810;2022-10-15T13:56:36;18.60;99.90
13035;DHT22;6584;48.022;11.810;2022-10-15T13:59:02;18.50;99.90
13035;DHT22;6584;48.022;11.810;2022-10-15T14:01:29;18.50;99.90
13035;DHT22;6584;48.022;11.810;2022-10-15T14:03:57;18.50;99.90
13035;DHT22;6584;48.022;11.810;2022-10-15T14:06:29;18.40;99.90
13035;DHT22;6584;48.022;11.810;2022-10-15T14:11:36;18.40;99.90
13035;DHT22;6584;48.022;11.810;2022-10-15T14:14:34;18.30;99.90
13035;DHT22;6584;48.022;11.810;2022-10-15T14:17:05;18.30;99.90
13035;DHT22;6584;48.022;11.810;2022-10-15T14:19:33;18.20;99.90
13035;DHT22;6584;48.022;11.810;2022-10-15T14:22:00;18.10;99.90
13035;DHT22;6584;48.022;11.810;2022-10-15T14:24:34;18.00;99.90
13035;DHT22;6584;48.022;11.810;2022-10-15T14:27:16;18.00;99.90
13035;DHT22;6584;48.022;11.810;2022-10-15T14:29:44;17.90;99.90
13035;DHT22;6584;48.022;11.810;2022-10-15T14:32:23;17.90;99.90
13035;DHT22;6584;48.022;11.810;2022-10-15T14:34:51;17.80;99.90
13035;DHT22;6584;48.022;11.810;2022-10-15T14:42:32;17.80;99.90
13035;DHT22;6584;48.022;11.810;2022-10-15T14:48:21;17.90;99.90
13035;DHT22;6584;48.022;11.810;2022-10-15T14:50:48;17.70;99.90
13035;DHT22;6584;48.022;11.810;2022-10-15T14:53:20;17.70;99.90
13035;DHT22;6584;48.022;11.810;2022-10-15T14:55:50;17.60;99.90
13035;DHT22;6584;48.022;11.810;2022-10-15T14:58:21;17.60;99.90
13035;DHT22;6584;48.022;11.810;2022-10-15T15:01:00;17.60;99.90
13035;DHT22;6584;48.022;11.810;2022-10-15T15:03:38;17.60;99.90
13035;DHT22;6584;48.022;11.810;2022-10-15T15:06:05;17.60;99.90
13035;DHT22;6584;48.022;11.810;2022-10-15T15:08:31;17.50;99.90
13035;DHT22;6584;48.022;11.810;2022-10-15T15:10:58;17.40;99.90
13035;DHT22;6584;48.022;11.810;2022-10-15T15:13:27;17.40;99.90
13035;DHT22;6584;48.022;11.810;2022-10-15T15:15:53;17.40;99.90
13035;DHT22;6584;48.022;11.810;2022-10-15T15:18:19;17.40;99.90
13035;DHT22;6584;48.022;11.810;2022-10-15T15:20:45;17.30;99.90
13035;DHT22;6584;48.022;11.810;2022-10-15T15:23:23;17.30;99.90
13035;DHT22;6584;48.022;11.810;2022-10-15T15:25:50;17.30;99.90
13035;DHT22;6584;48.022;11.810;2022-10-15T15:28:19;17.20;99.90
13035;DHT22;6584;48.022;11.810;2022-10-15T15:30:49;17.30;99.90
13035;DHT22;6584;48.022;11.810;2022-10-15T15:33:15;17.20;99.90
13035;DHT22;6584;48.022;11.810;2022-10-15T15:35:50;17.10;99.90
13035;DHT22;6584;48.022;11.810;2022-10-15T15:38:17;17.00;99.90
13035;DHT22;6584;48.022;11.810;2022-10-15T15:40:43;17.00;99.90
13035;DHT22;6584;48.022;11.810;2022-10-15T15:43:12;16.90;99.90
13035;DHT22;6584;48.022;11.810;2022-10-15T15:45:38;16.80;99.90
13035;DHT22;6584;48.022;11.810;2022-10-15T15:48:04;16.80;99.90
13035;DHT22;6584;48.022;11.810;2022-10-15T15:50:30;16.70;99.90
13035;DHT22;6584;48.022;11.810;2022-10-15T15:52:56;16.70;99.90
13035;DHT22;6584;48.022;11.810;2022-10-15T15:55:22;16.70;99.90
13035;DHT22;6584;48.022;11.810;2022-10-15T15:57:47;16.60;99.90
13035;DHT22;6584;48.022;11.810;2022-10-15T16:00:14;16.60;99.90
13035;DHT22;6584;48.022;11.810;2022-10-15T16:02:40;16.60;99.90
13035;DHT22;6584;48.022;11.810;2022-10-15T16:05:07;16.50;99.90
13035;DHT22;6584;48.022;11.810;2022-10-15T16:07:34;16.50;99.90
13035;DHT22;6584;48.022;11.810;2022-10-15T16:10:00;16.40;99.90
13035;DHT22;6584;48.022;11.810;2022-10-15T16:12:25;16.40;99.90
13035;DHT22;6584;48.022;11.810;2022-10-15T16:14:51;16.30;99.90
13035;DHT22;6584;48.022;11.810;2022-10-15T16:17:16;16.40;99.90
13035;DHT22;6584;48.022;11.810;2022-10-15T16:19:42;16.20;99.90
13035;DHT22;6584;48.022;11.810;2022-10-15T16:22:08;16.30;99.90
13035;DHT22;6584;48.022;11.810;2022-10-15T16:24:34;16.20;99.90
13035;DHT22;6584;48.022;11.810;2022-10-15T16:27:00;16.20;99.90
13035;DHT22;6584;48.022;11.810;2022-10-15T16:29:25;16.20;99.90
13035;DHT22;6584;48.022;11.810;2022-10-15T16:31:51;16.20;99.90
13035;DHT22;6584;48.022;11.810;2022-10-15T16:34:16;16.20;99.90
13035;DHT22;6584;48.022;11.810;2022-10-15T16:36:42;16.10;99.90
13035;DHT22;6584;48.022;11.810;2022-10-15T16:39:08;16.00;99.90
13035;DHT22;6584;48.022;11.810;2022-10-15T16:41:34;16.00;99.90
13035;DHT22;6584;48.022;11.810;2022-10-15T16:44:00;15.90;99.90
13035;DHT22;6584;48.022;11.810;2022-10-15T16:46:25;15.90;99.90
13035;DHT22;6584;48.022;11.810;2022-10-15T16:48:55;15.90;99.90
13035;DHT22;6584;48.022;11.810;2022-10-15T16:51:22;15.90;99.90
13035;DHT22;6584;48.022;11.810;2022-10-15T16:53:49;15.90;99.90
13035;DHT22;6584;48.022;11.810;2022-10-15T16:56:25;15.80;99.90
13035;DHT22;6584;48.022;11.810;2022-10-15T16:58:51;15.80;99.90
13035;DHT22;6584;48.022;11.810;2022-10-15T17:01:20;15.80;99.90
13035;DHT22;6584;48.022;11.810;2022-10-15T17:03:46;15.80;99.90
13035;DHT22;6584;48.022;11.810;2022-10-15T17:06:15;15.80;99.90
13035;DHT22;6584;48.022;11.810;2022-10-15T17:08:47;15.70;99.90
13035;DHT22;6584;48.022;11.810;2022-10-15T17:11:28;15.70;99.90
13035;DHT22;6584;48.022;11.810;2022-10-15T17:13:56;15.70;99.90
13035;DHT22;6584;48.022;11.810;2022-10-15T17:18:49;15.70;99.90
13035;DHT22;6584;48.022;11.810;2022-10-15T17:21:22;15.70;99.90
13035;DHT22;6584;48.022;11.810;2022-10-15T17:23:50;15.70;99.90
13035;DHT22;6584;48.022;11.810;2022-10-15T17:26:19;15.70;99.90
13035;DHT22;6584;48.022;11.810;2022-10-15T17:28:46;15.70;99.90
13035;DHT22;6584;48.022;11.810;2022-10-15T17:31:16;15.70;99.90
13035;DHT22;6584;48.022;11.810;2022-10-15T17:33:42;15.60;99.90
13035;DHT22;6584;48.022;11.810;2022-10-15T17:36:19;15.60;99.90
13035;DHT22;6584;48.022;11.810;2022-10-15T17:38:46;15.70;99.90
13035;DHT22;6584;48.022;11.810;2022-10-15T17:41:17;15.50;99.90
13035;DHT22;6584;48.022;11.810;2022-10-15T17:43:44;15.60;99.90
13035;DHT22;6584;48.022;11.810;2022-10-15T17:46:12;15.60;99.90